Baltimore, Maryland
Current Conditions -  °F | °C
As of 3:54 PM on Thursday 27 Nov 2014 (Local Time) from KBWI Reporting Station
Broken Clouds Broken Clouds  
Wind Chill: 35°   Ceiling: 7000
Heat Index: 41°   Visibility: 10mi
Dew Point: 27°   Wind: 10mph
Humidity: 57%   Direction: 290°WNW
Pressure: 30.05"   Gusts: NA
Location:  39.29°N, 76.61°W
Report Text: KBWI 272054Z 29009KT 10SM SCT044 BKN070 BKN140 BKN250 05/M03 A3005 RMK AO2 SLP178 T00501028 53009
Loading
Personal Weather Stations






























Interactive Weather Map New forecast layout! Learn more

10-Day Weather Forecast

Advertisements
Track Severe Weather on mobile